createdAt,value
2023-05-13T00:01:29.889Z,12.20
2023-05-13T00:03:57.385Z,12.20
2023-05-13T00:06:24.876Z,12.10
2023-05-13T00:08:52.285Z,12.10
2023-05-13T00:11:19.648Z,12.00
2023-05-13T00:13:46.919Z,12.00
2023-05-13T00:16:14.457Z,12.00
2023-05-13T00:18:41.844Z,11.90
2023-05-13T00:21:09.574Z,11.90
2023-05-13T00:23:36.959Z,11.80
2023-05-13T00:26:04.405Z,11.80
2023-05-13T00:28:31.711Z,11.80
2023-05-13T00:30:59.325Z,11.70
2023-05-13T00:33:26.696Z,11.80
2023-05-13T00:35:54.262Z,11.70
2023-05-13T00:38:22.282Z,11.70
2023-05-13T00:40:50.760Z,11.60
2023-05-13T00:43:18.035Z,11.60
2023-05-13T00:45:45.974Z,11.60
2023-05-13T00:48:13.595Z,11.70
2023-05-13T00:50:44.721Z,11.70
2023-05-13T00:53:13.346Z,11.80
2023-05-13T00:55:43.238Z,11.90
2023-05-13T00:58:11.655Z,11.90
2023-05-13T01:00:52.334Z,11.90
2023-05-13T01:03:26.615Z,11.80
2023-05-13T01:06:08.322Z,11.70
2023-05-13T01:08:47.019Z,11.60
2023-05-13T01:11:22.212Z,11.50
2023-05-13T01:13:57.232Z,11.40
2023-05-13T01:16:32.165Z,11.40
2023-05-13T01:19:05.557Z,11.30
2023-05-13T01:21:37.327Z,11.30
2023-05-13T01:24:05.178Z,11.20
2023-05-13T01:26:32.764Z,11.10
2023-05-13T01:29:00.851Z,11.00
2023-05-13T01:31:29.417Z,10.90
2023-05-13T01:33:57.443Z,10.90
2023-05-13T01:36:26.285Z,10.90
2023-05-13T01:38:56.171Z,11.00
2023-05-13T01:41:23.753Z,11.00
2023-05-13T01:43:51.483Z,11.00
2023-05-13T01:46:19.107Z,11.10
2023-05-13T01:48:48.204Z,11.10
2023-05-13T01:51:15.970Z,11.10
2023-05-13T01:53:44.378Z,11.00
2023-05-13T01:56:11.892Z,11.00
2023-05-13T01:58:39.440Z,11.10
2023-05-13T02:01:06.818Z,11.20
2023-05-13T02:03:35.103Z,11.30
2023-05-13T02:06:03.333Z,11.40
2023-05-13T02:08:31.147Z,11.40
2023-05-13T02:11:00.392Z,11.60
2023-05-13T02:13:29.418Z,11.60
2023-05-13T02:15:56.927Z,11.60
2023-05-13T02:18:24.696Z,11.60
2023-05-13T02:20:52.372Z,11.60
2023-05-13T02:23:19.871Z,11.60
2023-05-13T02:25:47.174Z,11.60
2023-05-13T02:28:14.702Z,11.60
2023-05-13T02:30:42.250Z,11.70
2023-05-13T02:33:09.770Z,11.60
2023-05-13T02:35:37.285Z,11.60
2023-05-13T02:38:05.583Z,11.60
2023-05-13T02:40:34.671Z,11.60
2023-05-13T02:43:02.222Z,11.60
2023-05-13T02:45:42.667Z,11.60
2023-05-13T02:48:11.778Z,11.50
2023-05-13T02:50:40.838Z,11.40
2023-05-13T02:53:09.723Z,11.50
2023-05-13T02:55:41.214Z,11.40
2023-05-13T02:58:09.873Z,11.40
2023-05-13T03:00:37.203Z,11.40
2023-05-13T03:03:04.820Z,11.20
2023-05-13T03:05:32.233Z,11.10
2023-05-13T03:07:59.768Z,11.10
2023-05-13T03:10:27.164Z,11.00
2023-05-13T03:12:54.607Z,10.90
2023-05-13T03:15:23.134Z,10.90
2023-05-13T03:17:50.869Z,10.90
2023-05-13T03:20:19.893Z,11.00
2023-05-13T03:22:47.737Z,11.10
2023-05-13T03:25:16.011Z,11.10
2023-05-13T03:27:48.772Z,11.20
2023-05-13T03:30:18.560Z,11.20
2023-05-13T03:32:52.983Z,11.20
2023-05-13T03:35:20.621Z,11.20
2023-05-13T03:37:48.073Z,11.20
2023-05-13T03:40:16.969Z,11.20
2023-05-13T03:42:44.499Z,11.20
2023-05-13T03:45:13.140Z,11.20
2023-05-13T03:47:42.386Z,11.10
2023-05-13T03:50:14.902Z,11.20
2023-05-13T03:52:46.970Z,11.10
2023-05-13T03:55:16.600Z,11.10
2023-05-13T03:57:47.851Z,11.10
2023-05-13T04:00:17.625Z,11.10
2023-05-13T04:02:45.078Z,11.00
2023-05-13T04:05:14.271Z,11.00
2023-05-13T04:07:42.294Z,11.00
2023-05-13T04:10:13.060Z,11.00
2023-05-13T04:12:42.138Z,11.00
2023-05-13T04:15:09.883Z,10.90
2023-05-13T04:17:37.340Z,10.90
2023-05-13T04:20:05.108Z,10.90
2023-05-13T04:22:32.674Z,10.90
2023-05-13T04:24:59.977Z,10.80
2023-05-13T04:27:27.673Z,10.80
2023-05-13T04:30:02.176Z,10.80
2023-05-13T04:32:32.487Z,10.80
2023-05-13T04:35:00.005Z,10.80
2023-05-13T04:37:29.429Z,10.80
2023-05-13T04:39:59.714Z,10.90
2023-05-13T04:42:28.723Z,10.80
2023-05-13T04:44:56.201Z,10.80
2023-05-13T04:47:23.817Z,10.80
2023-05-13T04:49:51.239Z,10.80
2023-05-13T04:52:19.906Z,10.80
2023-05-13T04:54:47.208Z,10.70
2023-05-13T04:57:14.590Z,10.80
2023-05-13T04:59:42.011Z,10.80
2023-05-13T05:02:10.808Z,10.90
2023-05-13T05:04:38.721Z,10.90
2023-05-13T05:07:11.944Z,10.90
2023-05-13T05:09:39.492Z,10.90
2023-05-13T05:12:07.335Z,10.80
2023-05-13T05:14:38.508Z,10.80
2023-05-13T05:17:07.831Z,10.90
2023-05-13T05:19:35.457Z,10.90
2023-05-13T05:22:03.694Z,10.80
2023-05-13T05:24:31.484Z,10.80
2023-05-13T05:26:58.899Z,10.90
2023-05-13T05:29:26.693Z,10.90
2023-05-13T05:31:55.057Z,10.90
2023-05-13T05:34:22.464Z,10.90
2023-05-13T05:36:49.975Z,10.90
2023-05-13T05:39:17.989Z,10.90
2023-05-13T05:41:47.542Z,11.00
2023-05-13T05:44:15.021Z,11.00
2023-05-13T05:46:42.610Z,11.00
2023-05-13T05:49:09.901Z,11.10
2023-05-13T05:51:37.893Z,11.10
2023-05-13T05:54:06.965Z,11.10
2023-05-13T05:56:35.183Z,11.20
2023-05-13T05:59:02.582Z,11.20
2023-05-13T06:01:32.259Z,11.30
2023-05-13T06:03:59.780Z,11.40
2023-05-13T06:06:27.456Z,11.50
2023-05-13T06:08:54.796Z,11.60
2023-05-13T06:11:22.953Z,11.60
2023-05-13T06:13:51.504Z,11.60
2023-05-13T06:16:19.002Z,11.60
2023-05-13T06:18:46.365Z,11.70
2023-05-13T06:21:14.405Z,11.90
2023-05-13T06:23:42.482Z,12.00
2023-05-13T06:26:09.881Z,12.00
2023-05-13T06:28:37.321Z,12.10
2023-05-13T06:31:04.719Z,12.20
2023-05-13T06:33:32.076Z,12.30
2023-05-13T06:35:59.624Z,12.40
2023-05-13T06:38:27.775Z,12.40
2023-05-13T06:40:57.939Z,12.50
2023-05-13T06:43:30.687Z,12.60
2023-05-13T06:46:00.163Z,12.70
2023-05-13T06:48:28.799Z,12.80
2023-05-13T06:50:56.386Z,12.90
2023-05-13T06:53:23.632Z,12.90
2023-05-13T06:55:51.168Z,12.90
2023-05-13T06:58:18.572Z,13.00
2023-05-13T07:00:47.329Z,13.10
2023-05-13T07:03:14.821Z,13.10
2023-05-13T07:05:42.511Z,13.10
2023-05-13T07:08:09.890Z,13.20
2023-05-13T07:10:37.437Z,13.20
2023-05-13T07:13:05.268Z,13.10
2023-05-13T07:15:32.680Z,13.10
2023-05-13T07:17:59.984Z,13.10
2023-05-13T07:20:27.557Z,13.10
2023-05-13T07:22:54.916Z,13.10
2023-05-13T07:25:22.355Z,13.20
2023-05-13T07:27:49.846Z,13.20
2023-05-13T07:30:17.417Z,13.20
2023-05-13T07:32:44.810Z,13.30
2023-05-13T07:35:12.413Z,13.30
2023-05-13T07:37:39.810Z,13.30
2023-05-13T07:40:08.135Z,13.40
2023-05-13T07:42:35.839Z,13.30
2023-05-13T07:45:04.297Z,13.20
2023-05-13T07:47:32.069Z,13.20
2023-05-13T07:49:59.918Z,13.20
2023-05-13T07:52:27.700Z,13.30
2023-05-13T07:54:55.501Z,13.30
2023-05-13T07:57:22.882Z,13.40
2023-05-13T07:59:50.320Z,13.50
2023-05-13T08:02:17.663Z,13.60
2023-05-13T08:04:45.123Z,13.70
2023-05-13T08:07:12.390Z,13.80
2023-05-13T08:09:39.872Z,13.90
2023-05-13T08:12:07.529Z,13.90
2023-05-13T08:14:35.053Z,14.10
2023-05-13T08:17:02.298Z,14.20
2023-05-13T08:19:29.702Z,14.50
2023-05-13T08:21:57.023Z,14.50
2023-05-13T08:24:24.401Z,14.60
2023-05-13T08:26:51.890Z,14.60
2023-05-13T08:29:19.330Z,14.70
2023-05-13T08:31:46.718Z,14.80
2023-05-13T08:34:14.184Z,14.90
2023-05-13T08:36:41.460Z,14.90
2023-05-13T08:39:08.859Z,15.00
2023-05-13T08:41:37.920Z,15.00
2023-05-13T08:44:07.151Z,15.10
2023-05-13T08:46:37.537Z,15.10
2023-05-13T08:49:05.689Z,15.20
2023-05-13T08:51:33.050Z,15.30
2023-05-13T08:54:01.520Z,15.40
2023-05-13T08:56:30.024Z,15.60
2023-05-13T08:58:57.459Z,16.00
2023-05-13T09:01:26.967Z,16.30
2023-05-13T09:04:00.426Z,16.70
2023-05-13T09:06:28.820Z,17.40
2023-05-13T09:08:56.553Z,18.00
2023-05-13T09:11:24.081Z,18.10
2023-05-13T09:14:07.458Z,18.10
2023-05-13T09:16:36.687Z,18.00
2023-05-13T09:19:07.585Z,18.00
2023-05-13T09:21:36.312Z,17.90
2023-05-13T09:24:08.911Z,17.70
2023-05-13T09:26:40.661Z,17.80
2023-05-13T09:29:11.010Z,17.90
2023-05-13T09:31:38.416Z,18.00
2023-05-13T09:34:05.779Z,18.10
2023-05-13T09:36:33.818Z,18.10
2023-05-13T09:39:02.002Z,18.10
2023-05-13T09:41:31.667Z,18.10
2023-05-13T09:44:02.067Z,18.10
2023-05-13T09:46:31.624Z,18.10
2023-05-13T09:48:59.111Z,18.20
2023-05-13T09:51:27.907Z,18.20
2023-05-13T09:53:55.496Z,18.10
2023-05-13T09:56:24.681Z,17.90
2023-05-13T09:58:53.307Z,17.80
2023-05-13T10:01:22.522Z,17.70
2023-05-13T10:03:50.270Z,17.80
2023-05-13T10:06:18.769Z,17.70
2023-05-13T10:08:49.674Z,17.80
2023-05-13T10:11:18.755Z,17.70
2023-05-13T10:13:51.816Z,17.80
2023-05-13T10:16:19.375Z,17.90
2023-05-13T10:18:47.971Z,18.10
2023-05-13T10:21:16.251Z,18.00
2023-05-13T10:23:45.057Z,18.30
2023-05-13T10:26:13.090Z,18.30
2023-05-13T10:28:42.547Z,18.30
2023-05-13T10:31:09.876Z,18.20
2023-05-13T10:33:37.161Z,18.10
2023-05-13T10:36:12.922Z,18.00
2023-05-13T10:38:55.903Z,17.70
2023-05-13T10:41:32.967Z,17.60
2023-05-13T10:44:00.357Z,17.50
2023-05-13T10:46:27.666Z,17.30
2023-05-13T10:49:00.945Z,17.30
2023-05-13T10:51:28.376Z,17.20
2023-05-13T10:53:59.098Z,17.10
2023-05-13T10:56:28.852Z,17.10
2023-05-13T10:58:59.436Z,17.20
2023-05-13T11:01:29.975Z,17.40
2023-05-13T11:04:00.247Z,17.50
2023-05-13T11:06:30.580Z,17.60
2023-05-13T11:08:57.870Z,17.60
2023-05-13T11:11:29.663Z,17.50
2023-05-13T11:14:08.907Z,17.40
2023-05-13T11:16:37.597Z,17.40
2023-05-13T11:19:09.624Z,17.40
2023-05-13T11:21:39.819Z,17.50
2023-05-13T11:24:08.229Z,17.50
2023-05-13T11:26:38.834Z,17.60
2023-05-13T11:29:06.776Z,17.70
2023-05-13T11:31:50.429Z,17.80
2023-05-13T11:34:19.628Z,17.80
2023-05-13T11:36:51.075Z,18.00
2023-05-13T11:39:20.549Z,18.10
2023-05-13T11:41:50.166Z,18.00
2023-05-13T11:44:20.613Z,18.00
2023-05-13T11:46:50.089Z,18.00
2023-05-13T11:49:20.384Z,18.20
2023-05-13T11:51:47.556Z,18.20
2023-05-13T11:54:14.773Z,18.30
2023-05-13T11:56:44.035Z,18.40
2023-05-13T11:59:14.895Z,18.30
2023-05-13T12:01:42.576Z,18.30
2023-05-13T12:04:09.827Z,18.20
2023-05-13T12:06:46.277Z,18.10
2023-05-13T12:09:13.569Z,18.10
2023-05-13T12:11:41.231Z,18.30
2023-05-13T12:14:09.243Z,18.50
2023-05-13T12:16:36.616Z,18.60
2023-05-13T12:19:06.556Z,18.60
2023-05-13T12:21:35.042Z,18.80
2023-05-13T12:24:02.496Z,19.20
2023-05-13T12:26:29.719Z,19.70
2023-05-13T12:28:59.203Z,20.00
2023-05-13T12:31:26.627Z,20.30
2023-05-13T12:33:53.915Z,20.70
2023-05-13T12:36:27.989Z,20.80
2023-05-13T12:39:00.272Z,20.70
2023-05-13T12:41:31.180Z,20.40
2023-05-13T12:44:00.370Z,20.40
2023-05-13T12:46:28.157Z,20.30
2023-05-13T12:48:57.152Z,20.10
2023-05-13T12:51:24.448Z,19.80
2023-05-13T12:53:54.246Z,19.60
2023-05-13T12:56:23.348Z,19.60
2023-05-13T12:58:51.865Z,19.60
2023-05-13T13:01:19.803Z,19.60
2023-05-13T13:03:47.193Z,19.90
2023-05-13T13:06:15.113Z,20.00
2023-05-13T13:08:42.480Z,20.20
2023-05-13T13:11:09.969Z,20.40
2023-05-13T13:13:39.240Z,20.30
2023-05-13T13:16:07.404Z,20.20
2023-05-13T13:18:35.299Z,20.20
2023-05-13T13:21:02.724Z,20.00
2023-05-13T13:23:29.995Z,19.80
2023-05-13T13:25:59.375Z,19.60
2023-05-13T13:28:27.650Z,19.50
2023-05-13T13:30:55.266Z,19.40
2023-05-13T13:33:22.576Z,19.20
2023-05-13T13:35:49.971Z,19.10
2023-05-13T13:38:17.207Z,19.10
2023-05-13T13:40:44.454Z,19.00
2023-05-13T13:43:11.727Z,19.10
2023-05-13T13:45:39.573Z,19.30
2023-05-13T13:48:07.099Z,19.40
2023-05-13T13:50:34.269Z,19.60
2023-05-13T13:53:01.404Z,19.60
2023-05-13T13:55:28.551Z,19.50
2023-05-13T13:57:55.745Z,19.50
2023-05-13T14:00:23.078Z,19.40
2023-05-13T14:02:50.701Z,19.40
2023-05-13T14:05:17.999Z,19.40
2023-05-13T14:07:54.192Z,19.40
2023-05-13T14:10:21.848Z,19.40
2023-05-13T14:12:49.187Z,19.40
2023-05-13T14:15:16.524Z,19.40
2023-05-13T14:17:44.016Z,19.50
2023-05-13T14:20:12.244Z,19.60
2023-05-13T14:22:39.484Z,19.70
2023-05-13T14:25:06.974Z,19.70
2023-05-13T14:27:36.423Z,19.70
2023-05-13T14:30:04.868Z,19.90
2023-05-13T14:32:32.060Z,20.10
2023-05-13T14:34:59.736Z,20.40
2023-05-13T14:37:27.054Z,20.40
2023-05-13T14:39:54.303Z,20.50
2023-05-13T14:42:21.857Z,20.60
2023-05-13T14:44:49.072Z,20.60
2023-05-13T14:47:16.238Z,20.50
2023-05-13T14:49:43.816Z,20.30
2023-05-13T14:52:10.963Z,20.30
2023-05-13T14:54:38.437Z,20.20
2023-05-13T14:57:07.254Z,20.10
2023-05-13T14:59:34.615Z,20.10
2023-05-13T15:02:03.537Z,20.30
2023-05-13T15:04:31.054Z,20.40
2023-05-13T15:06:58.489Z,20.50
2023-05-13T15:09:25.936Z,20.50
2023-05-13T15:11:53.204Z,20.50
2023-05-13T15:14:26.016Z,20.40
2023-05-13T15:16:53.551Z,20.30
2023-05-13T15:19:20.902Z,20.40
2023-05-13T15:21:48.181Z,20.30
2023-05-13T15:24:15.323Z,20.40
2023-05-13T15:26:43.300Z,20.40
2023-05-13T15:29:10.515Z,20.40
2023-05-13T15:31:37.694Z,20.50
2023-05-13T15:34:04.870Z,20.50
2023-05-13T15:36:34.392Z,20.60
2023-05-13T15:39:02.674Z,20.50
2023-05-13T15:41:30.035Z,20.50
2023-05-13T15:43:57.149Z,20.30
2023-05-13T15:46:25.302Z,20.10
2023-05-13T15:48:52.543Z,20.00
2023-05-13T15:51:20.702Z,20.00
2023-05-13T15:53:47.813Z,20.10
2023-05-13T15:56:15.078Z,20.10
2023-05-13T15:58:42.275Z,20.20
2023-05-13T16:01:09.480Z,20.10
2023-05-13T16:03:38.705Z,20.10
2023-05-13T16:06:06.317Z,20.00
2023-05-13T16:08:33.430Z,20.10
2023-05-13T16:11:00.843Z,20.00
2023-05-13T16:13:27.953Z,20.00
2023-05-13T16:15:55.818Z,20.00
2023-05-13T16:18:23.177Z,20.00
2023-05-13T16:20:50.905Z,20.00
2023-05-13T16:23:18.049Z,20.00
2023-05-13T16:25:45.594Z,20.00
2023-05-13T16:28:12.730Z,20.00
2023-05-13T16:30:40.119Z,20.00
2023-05-13T16:33:09.583Z,20.00
2023-05-13T16:35:37.143Z,20.00
2023-05-13T16:38:04.272Z,20.00
2023-05-13T16:40:31.545Z,20.00
2023-05-13T16:43:02.533Z,20.00
2023-05-13T16:45:31.304Z,20.00
2023-05-13T16:47:58.590Z,20.00
2023-05-13T16:50:26.301Z,19.90
2023-05-13T16:52:54.611Z,19.90
2023-05-13T16:55:22.694Z,19.80
2023-05-13T16:57:49.883Z,19.80
2023-05-13T17:00:17.394Z,19.70
2023-05-13T17:02:44.665Z,19.60
2023-05-13T17:05:12.095Z,19.60
2023-05-13T17:07:39.752Z,19.60
2023-05-13T17:10:07.585Z,19.60
2023-05-13T17:12:34.763Z,19.60
2023-05-13T17:15:01.986Z,19.50
2023-05-13T17:17:29.198Z,19.40
2023-05-13T17:19:57.703Z,19.40
2023-05-13T17:22:24.843Z,19.40
2023-05-13T17:24:52.088Z,19.40
2023-05-13T17:27:19.174Z,19.50
2023-05-13T17:29:46.412Z,19.50
2023-05-13T17:32:13.573Z,19.50
2023-05-13T17:34:40.867Z,19.50
2023-05-13T17:37:08.115Z,19.40
2023-05-13T17:39:35.324Z,19.40
2023-05-13T17:42:02.484Z,19.30
2023-05-13T17:44:29.765Z,19.30
2023-05-13T17:46:57.056Z,19.20
2023-05-13T17:49:24.273Z,19.10
2023-05-13T17:51:51.447Z,19.00
2023-05-13T17:54:18.610Z,19.00
2023-05-13T17:56:45.734Z,19.00
2023-05-13T17:59:12.872Z,19.10
2023-05-13T18:01:40.003Z,19.10
2023-05-13T18:04:07.245Z,19.10
2023-05-13T18:06:34.358Z,19.10
2023-05-13T18:09:02.681Z,19.10
2023-05-13T18:11:30.668Z,19.20
2023-05-13T18:13:57.886Z,19.20
2023-05-13T18:16:25.135Z,19.10
2023-05-13T18:18:52.592Z,19.10
2023-05-13T18:21:19.811Z,19.00
2023-05-13T18:23:47.062Z,18.90
2023-05-13T18:26:14.308Z,18.90
2023-05-13T18:28:45.081Z,18.90
2023-05-13T18:31:12.383Z,18.90
2023-05-13T18:33:39.574Z,19.00
2023-05-13T18:36:08.733Z,18.90
2023-05-13T18:38:37.031Z,19.00
2023-05-13T18:41:05.030Z,18.90
2023-05-13T18:43:32.185Z,19.00
2023-05-13T18:45:59.601Z,18.90
2023-05-13T18:48:26.915Z,18.80
2023-05-13T18:50:54.124Z,18.80
2023-05-13T18:53:21.345Z,18.70
2023-05-13T18:55:48.620Z,18.70
2023-05-13T18:58:15.779Z,18.70
2023-05-13T19:00:43.007Z,18.60
2023-05-13T19:03:10.435Z,18.40
2023-05-13T19:05:37.905Z,18.30
2023-05-13T19:08:06.222Z,18.10
2023-05-13T19:10:39.361Z,18.00
2023-05-13T19:13:07.610Z,17.80
2023-05-13T19:15:35.013Z,17.50
2023-05-13T19:18:02.331Z,17.30
2023-05-13T19:20:30.257Z,17.10
2023-05-13T19:22:57.611Z,17.00
2023-05-13T19:25:24.814Z,16.80
2023-05-13T19:27:52.077Z,16.70
2023-05-13T19:30:19.301Z,16.60
2023-05-13T19:32:46.483Z,16.60
2023-05-13T19:35:13.761Z,16.60
2023-05-13T19:37:40.898Z,16.70
2023-05-13T19:40:08.922Z,16.70
2023-05-13T19:42:36.277Z,16.70
2023-05-13T19:45:06.506Z,16.60
2023-05-13T19:47:34.755Z,16.50
2023-05-13T19:50:02.392Z,16.40
2023-05-13T19:52:29.590Z,16.40
2023-05-13T19:54:56.771Z,16.30
2023-05-13T19:57:23.963Z,16.20
2023-05-13T19:59:51.941Z,16.20
2023-05-13T20:02:19.265Z,16.20
2023-05-13T20:04:46.566Z,16.30
2023-05-13T20:07:13.694Z,16.30
2023-05-13T20:09:41.060Z,16.30
2023-05-13T20:12:08.362Z,16.20
2023-05-13T20:14:38.643Z,16.10
2023-05-13T20:17:05.827Z,16.00
2023-05-13T20:19:33.146Z,15.80
2023-05-13T20:22:00.870Z,15.80
2023-05-13T20:24:28.074Z,15.70
2023-05-13T20:26:55.605Z,15.60
2023-05-13T20:29:23.386Z,15.60
2023-05-13T20:31:50.500Z,15.60
2023-05-13T20:34:17.805Z,15.70
2023-05-13T20:36:44.906Z,15.60
2023-05-13T20:39:12.168Z,15.60
2023-05-13T20:41:39.389Z,15.60
2023-05-13T20:44:07.116Z,15.50
2023-05-13T20:46:34.246Z,15.40
2023-05-13T20:49:01.459Z,15.40
2023-05-13T20:51:28.579Z,15.50
2023-05-13T20:53:55.918Z,15.50
2023-05-13T20:56:23.031Z,15.50
2023-05-13T20:58:51.646Z,15.60
2023-05-13T21:01:18.920Z,15.60
2023-05-13T21:03:47.134Z,15.70
2023-05-13T21:06:16.097Z,15.70
2023-05-13T21:08:44.345Z,15.70
2023-05-13T21:11:11.450Z,15.60
2023-05-13T21:13:38.706Z,15.60
2023-05-13T21:16:06.313Z,15.50
2023-05-13T21:18:34.140Z,15.50
2023-05-13T21:21:01.615Z,15.50
2023-05-13T21:23:29.089Z,15.40
2023-05-13T21:25:56.211Z,15.50
2023-05-13T21:28:23.456Z,15.50
2023-05-13T21:30:50.559Z,15.50
2023-05-13T21:33:17.688Z,15.50
2023-05-13T21:35:44.824Z,15.50
2023-05-13T21:38:12.649Z,15.50
2023-05-13T21:40:40.565Z,15.50
2023-05-13T21:43:07.829Z,15.40
2023-05-13T21:45:35.124Z,15.40
2023-05-13T21:48:02.363Z,15.30
2023-05-13T21:50:29.730Z,15.20
2023-05-13T21:52:57.014Z,15.20
2023-05-13T21:55:24.920Z,15.20
2023-05-13T21:57:52.108Z,15.10
2023-05-13T22:00:19.499Z,15.10
2023-05-13T22:02:47.023Z,15.00
2023-05-13T22:05:14.558Z,15.00
2023-05-13T22:07:41.790Z,15.00
2023-05-13T22:10:09.792Z,15.00
2023-05-13T22:12:37.007Z,14.90
2023-05-13T22:15:04.499Z,14.90
2023-05-13T22:17:31.778Z,14.90
2023-05-13T22:19:59.078Z,14.80
2023-05-13T22:22:26.377Z,14.90
2023-05-13T22:24:53.635Z,14.90
2023-05-13T22:27:21.453Z,14.90
2023-05-13T22:29:48.619Z,15.00
2023-05-13T22:32:15.922Z,15.10
2023-05-13T22:34:43.176Z,15.20
2023-05-13T22:37:10.853Z,15.20
2023-05-13T22:39:38.053Z,15.20
2023-05-13T22:42:05.396Z,15.20
2023-05-13T22:44:32.612Z,15.20
2023-05-13T22:46:59.861Z,15.10
2023-05-13T22:49:27.017Z,15.10
2023-05-13T22:51:54.286Z,15.10
2023-05-13T22:54:21.412Z,15.10
2023-05-13T22:56:48.590Z,15.20
2023-05-13T22:59:15.908Z,15.20
2023-05-13T23:01:43.142Z,15.30
2023-05-13T23:04:10.334Z,15.40
2023-05-13T23:06:37.649Z,15.40
2023-05-13T23:09:05.671Z,15.40
2023-05-13T23:11:33.020Z,15.40
2023-05-13T23:14:00.260Z,15.40
2023-05-13T23:16:27.639Z,15.40
2023-05-13T23:18:55.979Z,15.40
2023-05-13T23:21:23.475Z,15.30
2023-05-13T23:23:52.078Z,15.30
2023-05-13T23:26:19.556Z,15.20
2023-05-13T23:28:46.831Z,15.30
2023-05-13T23:31:14.136Z,15.30
2023-05-13T23:33:41.425Z,15.30
2023-05-13T23:36:08.898Z,15.30
2023-05-13T23:38:35.994Z,15.30
2023-05-13T23:41:03.622Z,15.30
2023-05-13T23:43:30.815Z,15.30
2023-05-13T23:45:58.166Z,15.30
2023-05-13T23:48:28.344Z,15.20
2023-05-13T23:50:55.705Z,15.10
2023-05-13T23:53:22.840Z,15.10
2023-05-13T23:55:50.113Z,15.00
2023-05-13T23:58:17.494Z,15.00
